createdAt,value
2022-10-23T00:00:25.025Z,100100.63
2022-10-23T00:03:17.747Z,100095.64
2022-10-23T00:05:49.438Z,100105.00
2022-10-23T00:08:19.793Z,100104.67
2022-10-23T00:10:50.013Z,100105.48
2022-10-23T00:13:18.960Z,100107.30
2022-10-23T00:15:48.304Z,100110.73
2022-10-23T00:18:19.157Z,100109.42
2022-10-23T00:20:49.175Z,100111.62
2022-10-23T00:23:18.247Z,100112.05
2022-10-23T00:25:48.703Z,100115.63
2022-10-23T00:28:18.702Z,100114.84
2022-10-23T00:30:50.385Z,100114.23
2022-10-23T00:33:19.818Z,100113.13
2022-10-23T00:35:50.272Z,100120.27
2022-10-23T00:38:23.061Z,100114.66
2022-10-23T00:40:53.203Z,100117.48
2022-10-23T00:43:27.675Z,100116.09
2022-10-23T00:46:00.832Z,100120.30
2022-10-23T00:48:33.154Z,100117.90
2022-10-23T00:51:05.870Z,100126.52
2022-10-23T00:53:39.789Z,100124.43
2022-10-23T00:56:11.033Z,100126.95
2022-10-23T00:58:44.222Z,100128.98
2022-10-23T01:01:22.837Z,100130.23
2022-10-23T01:03:52.784Z,100133.69
2022-10-23T01:06:38.324Z,100138.63
2022-10-23T01:09:18.421Z,100141.89
2022-10-23T01:12:02.358Z,100141.83
2022-10-23T01:14:52.644Z,100141.70
2022-10-23T01:18:01.922Z,100142.56
2022-10-23T01:20:46.037Z,100143.18
2022-10-23T01:23:54.379Z,100142.25
2022-10-23T01:26:55.868Z,100144.23
2022-10-23T01:29:36.060Z,100148.42
2022-10-23T01:32:11.727Z,100148.92
2022-10-23T01:34:49.385Z,100149.27
2022-10-23T01:37:24.914Z,100151.20
2022-10-23T01:39:59.930Z,100151.78
2022-10-23T01:42:36.149Z,100153.23
2022-10-23T01:45:13.032Z,100148.48
2022-10-23T01:47:46.434Z,100151.23
2022-10-23T01:50:21.686Z,100149.13
2022-10-23T01:52:55.217Z,100146.73
2022-10-23T01:55:27.586Z,100151.88
2022-10-23T01:58:03.157Z,100147.55
2022-10-23T02:00:41.939Z,100147.33
2022-10-23T02:03:16.274Z,100143.61
2022-10-23T02:05:47.481Z,100140.30
2022-10-23T02:08:16.741Z,100140.80
2022-10-23T02:10:55.492Z,100144.45
2022-10-23T02:13:39.963Z,100143.40
2022-10-23T02:16:40.388Z,100142.98
2022-10-23T02:19:28.069Z,100152.48
2022-10-23T02:22:14.823Z,100152.83
2022-10-23T02:24:53.547Z,100150.39
2022-10-23T02:27:35.085Z,100147.60
2022-10-23T02:30:10.160Z,100149.23
2022-10-23T02:32:45.541Z,100154.21
2022-10-23T02:35:16.580Z,100147.98
2022-10-23T02:37:56.423Z,100148.94
2022-10-23T02:40:36.696Z,100151.23
2022-10-23T02:43:36.247Z,100155.66
2022-10-23T02:46:26.454Z,100155.76
2022-10-23T02:49:15.346Z,100162.27
2022-10-23T02:52:09.372Z,100163.38
2022-10-23T02:54:45.652Z,100161.77
2022-10-23T02:57:20.736Z,100159.27
2022-10-23T03:00:18.775Z,100161.13
2022-10-23T03:03:13.979Z,100160.45
2022-10-23T03:05:47.300Z,100157.19
2022-10-23T03:08:17.594Z,100151.34
2022-10-23T03:13:19.958Z,100159.78
2022-10-23T03:15:49.751Z,100163.21
2022-10-23T03:18:20.566Z,100164.77
2022-10-23T03:20:51.647Z,100168.58
2022-10-23T03:23:23.274Z,100168.25
2022-10-23T03:25:53.146Z,100170.05
2022-10-23T03:28:43.511Z,100167.81
2022-10-23T03:31:14.214Z,100173.95
2022-10-23T03:33:43.860Z,100175.59
2022-10-23T03:36:16.323Z,100183.38
2022-10-23T03:38:46.062Z,100187.80
2022-10-23T03:41:16.388Z,100195.01
2022-10-23T03:43:45.672Z,100198.20
2022-10-23T03:46:16.120Z,100196.23
2022-10-23T03:48:45.806Z,100197.52
2022-10-23T03:51:14.871Z,100195.20
2022-10-23T03:53:44.760Z,100194.36
2022-10-23T03:56:14.562Z,100194.06
2022-10-23T03:58:45.488Z,100193.98
2022-10-23T04:01:40.923Z,100198.31
2022-10-23T04:04:14.701Z,100202.52
2022-10-23T04:06:47.346Z,100206.04
2022-10-23T04:09:21.119Z,100209.17
2022-10-23T04:11:51.071Z,100207.98
2022-10-23T04:14:23.722Z,100211.94
2022-10-23T04:16:58.379Z,100211.98
2022-10-23T04:19:29.895Z,100209.86
2022-10-23T04:22:00.327Z,100216.58
2022-10-23T04:24:30.772Z,100210.80
2022-10-23T04:27:00.492Z,100208.20
2022-10-23T04:29:33.835Z,100211.63
2022-10-23T04:32:07.481Z,100209.13
2022-10-23T04:34:39.119Z,100211.21
2022-10-23T04:37:11.100Z,100209.88
2022-10-23T04:39:43.645Z,100209.85
2022-10-23T04:42:17.497Z,100210.15
2022-10-23T04:44:47.798Z,100215.21
2022-10-23T04:47:17.860Z,100216.17
2022-10-23T04:49:58.294Z,100216.96
2022-10-23T04:52:49.977Z,100221.46
2022-10-23T04:55:38.582Z,100226.02
2022-10-23T04:58:24.042Z,100225.95
2022-10-23T05:00:54.790Z,100225.59
2022-10-23T05:03:28.979Z,100225.13
2022-10-23T05:05:58.959Z,100222.42
2022-10-23T05:08:43.069Z,100223.20
2022-10-23T05:11:31.438Z,100220.11
2022-10-23T05:14:00.451Z,100218.84
2022-10-23T05:16:39.355Z,100219.60
2022-10-23T05:19:11.424Z,100218.08
2022-10-23T05:21:44.871Z,100213.96
2022-10-23T05:24:15.797Z,100220.20
2022-10-23T05:26:54.664Z,100220.08
2022-10-23T05:29:23.519Z,100220.90
2022-10-23T05:32:17.618Z,100227.15
2022-10-23T05:34:47.637Z,100225.48
2022-10-23T05:37:18.741Z,100226.96
2022-10-23T05:39:50.935Z,100225.05
2022-10-23T05:42:20.990Z,100226.23
2022-10-23T05:44:51.505Z,100225.77
2022-10-23T05:47:45.035Z,100224.66
2022-10-23T05:50:28.149Z,100228.30
2022-10-23T05:53:16.775Z,100228.58
2022-10-23T05:55:52.868Z,100223.64
2022-10-23T05:58:54.807Z,100223.36
2022-10-23T06:01:47.419Z,100220.50
2022-10-23T06:04:22.202Z,100211.55
2022-10-23T06:07:04.757Z,100216.92
2022-10-23T06:09:33.498Z,100214.98
2022-10-23T06:12:03.808Z,100216.81
2022-10-23T06:14:35.999Z,100217.45
2022-10-23T06:17:30.644Z,100215.70
2022-10-23T06:20:02.935Z,100217.31
2022-10-23T06:22:35.879Z,100220.80
2022-10-23T06:25:18.644Z,100223.09
2022-10-23T06:34:52.805Z,100231.48
2022-10-23T06:37:22.621Z,100234.64
2022-10-23T06:40:15.005Z,100235.85
2022-10-23T06:46:33.207Z,100241.24
2022-10-23T06:49:20.578Z,100238.58
2022-10-23T06:51:51.197Z,100232.04
2022-10-23T06:54:23.185Z,100228.26
2022-10-23T06:56:54.143Z,100227.16
2022-10-23T06:59:35.534Z,100234.80
2022-10-23T07:02:09.810Z,100239.95
2022-10-23T07:04:40.181Z,100243.31
2022-10-23T07:07:22.479Z,100243.32
2022-10-23T07:09:53.118Z,100245.77
2022-10-23T07:12:30.006Z,100248.84
2022-10-23T07:15:17.797Z,100249.71
2022-10-23T07:17:48.310Z,100253.10
2022-10-23T07:20:17.529Z,100246.34
2022-10-23T07:22:56.690Z,100242.95
2022-10-23T07:25:41.713Z,100237.88
2022-10-23T07:28:11.095Z,100238.91
2022-10-23T07:30:41.721Z,100244.80
2022-10-23T07:33:15.281Z,100247.69
2022-10-23T07:35:58.014Z,100248.39
2022-10-23T07:38:30.332Z,100241.67
2022-10-23T07:41:00.640Z,100239.55
2022-10-23T07:46:02.156Z,100243.92
2022-10-23T07:48:38.884Z,100241.38
2022-10-23T07:51:13.425Z,100240.27
2022-10-23T07:53:48.839Z,100247.14
2022-10-23T07:56:37.991Z,100244.02
2022-10-23T07:59:19.791Z,100246.16
2022-10-23T08:06:11.813Z,100250.15
2022-10-23T08:08:40.855Z,100254.27
2022-10-23T08:11:14.865Z,100253.14
2022-10-23T08:13:51.591Z,100251.71
2022-10-23T08:16:24.228Z,100252.90
2022-10-23T08:19:07.192Z,100250.67
2022-10-23T08:21:37.410Z,100249.73
2022-10-23T08:24:06.909Z,100253.66
2022-10-23T08:26:36.826Z,100262.05
2022-10-23T08:29:06.510Z,100258.03
2022-10-23T08:31:35.408Z,100257.52
2022-10-23T08:34:24.564Z,100255.64
2022-10-23T08:36:57.763Z,100254.21
2022-10-23T08:39:28.734Z,100256.96
2022-10-23T08:42:25.837Z,100261.84
2022-10-23T08:45:07.240Z,100259.03
2022-10-23T08:47:43.349Z,100263.42
2022-10-23T08:50:39.866Z,100262.52
2022-10-23T08:54:03.379Z,100264.48
2022-10-23T08:56:38.040Z,100262.71
2022-10-23T08:59:29.268Z,100265.89
2022-10-23T09:02:12.045Z,100259.01
2022-10-23T09:04:44.827Z,100260.73
2022-10-23T09:07:37.212Z,100262.53
2022-10-23T09:10:25.966Z,100271.61
2022-10-23T09:13:01.466Z,100278.61
2022-10-23T09:15:41.923Z,100277.84
2022-10-23T09:18:17.750Z,100278.60
2022-10-23T09:20:48.020Z,100284.77
2022-10-23T09:23:23.085Z,100286.14
2022-10-23T09:25:57.324Z,100291.16
2022-10-23T09:28:36.960Z,100290.11
2022-10-23T09:31:10.716Z,100298.94
2022-10-23T09:33:41.707Z,100299.69
2022-10-23T09:36:14.336Z,100299.19
2022-10-23T09:38:45.749Z,100300.02
2022-10-23T09:41:38.588Z,100298.61
2022-10-23T09:44:31.742Z,100303.71
2022-10-23T09:47:12.526Z,100302.52
2022-10-23T09:49:49.096Z,100303.39
2022-10-23T09:52:18.352Z,100302.15
2022-10-23T09:55:04.058Z,100302.27
2022-10-23T09:57:38.818Z,100302.65
2022-10-23T10:00:22.079Z,100303.83
2022-10-23T10:03:01.626Z,100303.27
2022-10-23T10:05:44.957Z,100301.89
2022-10-23T10:08:42.307Z,100301.17
2022-10-23T10:11:20.946Z,100301.15
2022-10-23T10:14:05.479Z,100295.25
2022-10-23T10:16:54.816Z,100287.60
2022-10-23T10:19:35.674Z,100281.09
2022-10-23T10:22:40.989Z,100278.56
2022-10-23T10:25:52.386Z,100276.33
2022-10-23T10:28:30.142Z,100284.73
2022-10-23T10:31:23.323Z,100281.23
2022-10-23T10:34:43.064Z,100283.29
2022-10-23T10:37:56.459Z,100286.55
2022-10-23T10:40:38.995Z,100287.58
2022-10-23T10:43:45.944Z,100285.33
2022-10-23T10:46:22.831Z,100281.56
2022-10-23T10:49:29.303Z,100282.69
2022-10-23T10:55:36.379Z,100280.55
2022-10-23T10:58:33.904Z,100279.90
2022-10-23T11:01:27.024Z,100279.27
2022-10-23T11:04:14.565Z,100274.30
2022-10-23T11:06:47.455Z,100273.52
2022-10-23T11:09:27.839Z,100278.06
2022-10-23T11:11:56.686Z,100283.78
2022-10-23T11:14:30.467Z,100281.76
2022-10-23T11:17:15.318Z,100284.91
2022-10-23T11:20:26.498Z,100285.67
2022-10-23T11:23:24.943Z,100287.84
2022-10-23T11:26:26.161Z,100289.51
2022-10-23T11:29:27.216Z,100291.14
2022-10-23T11:32:45.518Z,100289.20
2022-10-23T11:35:50.541Z,100290.77
2022-10-23T11:38:27.130Z,100291.17
2022-10-23T11:41:00.749Z,100293.34
2022-10-23T11:43:37.387Z,100295.63
2022-10-23T11:46:39.571Z,100293.17
2022-10-23T11:49:22.900Z,100284.88
2022-10-23T11:52:23.151Z,100288.66
2022-10-23T12:15:19.452Z,100276.19
2022-10-23T13:31:12.433Z,100274.31
2022-10-23T13:33:45.968Z,100275.45
2022-10-23T13:36:22.590Z,100273.41
2022-10-23T13:38:59.203Z,100273.57
2022-10-23T13:57:59.478Z,100275.05
2022-10-23T14:00:28.711Z,100278.30
2022-10-23T14:03:00.065Z,100272.05
2022-10-23T14:15:22.882Z,100268.86
2022-10-23T14:27:50.113Z,100267.95
2022-10-23T14:40:38.026Z,100266.02
2022-10-23T14:43:07.428Z,100268.71
2022-10-23T14:45:38.016Z,100266.90
2022-10-23T14:48:07.736Z,100269.61
2022-10-23T15:03:58.053Z,100252.20
2022-10-23T15:06:27.806Z,100248.31
2022-10-23T15:08:58.185Z,100242.50
2022-10-23T15:11:29.434Z,100241.52
2022-10-23T15:34:28.884Z,100256.95
2022-10-23T15:37:01.325Z,100258.02
2022-10-23T15:39:34.669Z,100254.86
2022-10-23T15:42:07.413Z,100249.81
2022-10-23T15:44:40.051Z,100242.09
2022-10-23T15:47:11.317Z,100241.71
2022-10-23T15:49:45.491Z,100241.67
2022-10-23T15:52:15.051Z,100242.10
2022-10-23T15:54:46.700Z,100239.09
2022-10-23T15:57:16.984Z,100244.05
2022-10-23T15:59:46.252Z,100249.77
2022-10-23T16:02:40.738Z,100255.25
2022-10-23T16:05:13.700Z,100254.55
2022-10-23T16:07:45.369Z,100260.09
2022-10-23T16:10:14.151Z,100258.88
2022-10-23T16:12:46.806Z,100259.61
2022-10-23T16:15:16.556Z,100253.36
2022-10-23T16:17:46.807Z,100255.20
2022-10-23T16:20:17.632Z,100258.00
2022-10-23T16:22:49.141Z,100262.35
2022-10-23T16:25:19.082Z,100267.54
2022-10-23T16:27:48.853Z,100276.06
2022-10-23T16:30:23.501Z,100275.86
2022-10-23T16:32:53.301Z,100274.45
2022-10-23T16:35:23.759Z,100274.15
2022-10-23T16:38:02.830Z,100278.00
2022-10-23T16:40:35.171Z,100277.91
2022-10-23T16:43:22.712Z,100275.85
2022-10-23T16:46:14.618Z,100270.34
2022-10-23T16:48:47.939Z,100263.77
2022-10-23T16:51:27.342Z,100266.45
2022-10-23T16:53:59.708Z,100268.95
2022-10-23T16:56:30.579Z,100269.10
2022-10-23T16:59:06.076Z,100267.30
2022-10-23T17:01:37.183Z,100263.33
2022-10-23T17:04:12.641Z,100263.73
2022-10-23T17:06:47.553Z,100264.36
2022-10-23T17:09:20.077Z,100265.30
2022-10-23T17:11:52.061Z,100264.59
2022-10-23T17:14:26.029Z,100263.33
2022-10-23T17:17:02.638Z,100264.34
2022-10-23T17:19:50.545Z,100271.57
2022-10-23T17:22:21.953Z,100270.33
2022-10-23T17:24:54.526Z,100266.85
2022-10-23T17:27:29.710Z,100270.79
2022-10-23T17:30:01.859Z,100272.88
2022-10-23T17:32:32.230Z,100275.67
2022-10-23T17:35:06.420Z,100276.11
2022-10-23T17:37:37.627Z,100275.17
2022-10-23T17:40:11.489Z,100274.75
2022-10-23T17:42:43.456Z,100276.47
2022-10-23T17:45:17.822Z,100276.65
2022-10-23T17:47:48.091Z,100276.55
2022-10-23T17:50:19.201Z,100275.36
2022-10-23T17:52:53.274Z,100278.52
2022-10-23T17:55:23.359Z,100279.38
2022-10-23T17:57:55.071Z,100279.23
2022-10-23T18:00:25.952Z,100278.52
2022-10-23T18:03:00.643Z,100278.14
2022-10-23T18:05:35.945Z,100280.20
2022-10-23T18:08:07.563Z,100277.05
2022-10-23T18:10:37.916Z,100280.85
2022-10-23T18:13:07.757Z,100279.48
2022-10-23T18:15:40.874Z,100273.61
2022-10-23T18:18:10.983Z,100269.04
2022-10-23T18:20:44.334Z,100269.31
2022-10-23T18:23:14.466Z,100264.23
2022-10-23T18:25:46.534Z,100265.37
2022-10-23T18:28:17.121Z,100272.10
2022-10-23T18:30:52.189Z,100275.63
2022-10-23T18:33:26.063Z,100271.69
2022-10-23T18:36:00.046Z,100272.89
2022-10-23T18:38:33.184Z,100267.74
2022-10-23T18:41:03.493Z,100264.39
2022-10-23T18:43:49.154Z,100265.81
2022-10-23T18:46:24.914Z,100268.23
2022-10-23T18:48:55.067Z,100273.45
2022-10-23T18:51:33.025Z,100278.44
2022-10-23T18:54:10.576Z,100276.05
2022-10-23T18:56:42.139Z,100277.58
2022-10-23T18:59:15.446Z,100273.15
2022-10-23T19:01:47.615Z,100271.82
2022-10-23T19:04:20.891Z,100274.73
2022-10-23T19:06:53.435Z,100269.42
2022-10-23T19:09:26.632Z,100269.95
2022-10-23T19:11:56.846Z,100269.73
2022-10-23T19:14:31.345Z,100268.05
2022-10-23T19:17:18.489Z,100267.11
2022-10-23T19:19:53.223Z,100265.00
2022-10-23T19:22:24.993Z,100265.75
2022-10-23T19:25:06.074Z,100267.41
2022-10-23T19:27:39.281Z,100260.10
2022-10-23T19:30:19.328Z,100255.60
2022-10-23T19:32:52.912Z,100252.44
2022-10-23T19:35:24.384Z,100249.49
2022-10-23T19:37:58.543Z,100253.02
2022-10-23T19:40:31.164Z,100255.38
2022-10-23T19:43:01.352Z,100251.98
2022-10-23T19:48:11.106Z,100237.95
2022-10-23T19:50:45.270Z,100232.39
2022-10-23T19:53:20.732Z,100237.38
2022-10-23T19:55:50.825Z,100236.95
2022-10-23T19:58:22.221Z,100233.32
2022-10-23T20:00:53.623Z,100234.23
2022-10-23T20:03:27.624Z,100232.09
2022-10-23T20:05:57.515Z,100227.42
2022-10-23T20:08:34.202Z,100226.02
2022-10-23T20:11:10.896Z,100220.63
2022-10-23T20:13:45.517Z,100217.20
2022-10-23T20:16:29.478Z,100219.38
2022-10-23T20:19:00.113Z,100219.17
2022-10-23T20:21:30.722Z,100218.39
2022-10-23T20:24:04.557Z,100215.89
2022-10-23T20:26:37.141Z,100217.20
2022-10-23T20:29:09.407Z,100215.73
2022-10-23T20:31:43.823Z,100213.11
2022-10-23T20:34:16.638Z,100212.30
2022-10-23T20:36:53.210Z,100207.23
2022-10-23T20:39:26.578Z,100202.67
2022-10-23T20:42:01.285Z,100204.55
2022-10-23T20:44:31.671Z,100202.15
2022-10-23T20:47:04.494Z,100195.38
2022-10-23T20:49:36.368Z,100196.26
2022-10-23T20:52:06.817Z,100198.85
2022-10-23T20:54:36.787Z,100203.77
2022-10-23T20:57:09.039Z,100206.27
2022-10-23T20:59:38.862Z,100208.59
2022-10-23T21:02:15.593Z,100207.84
2022-10-23T21:04:46.638Z,100205.30
2022-10-23T21:07:17.128Z,100204.41
2022-10-23T21:09:46.649Z,100210.52
2022-10-23T21:12:17.513Z,100210.81
2022-10-23T21:14:47.834Z,100212.35
2022-10-23T21:17:18.730Z,100211.84
2022-10-23T21:19:51.246Z,100213.94
2022-10-23T21:22:20.308Z,100214.91
2022-10-23T21:24:50.660Z,100214.54
2022-10-23T21:27:20.228Z,100213.58
2022-10-23T21:29:50.524Z,100213.67
2022-10-23T21:32:20.675Z,100204.98
2022-10-23T21:34:50.976Z,100206.36
2022-10-23T21:37:21.232Z,100204.09
2022-10-23T21:39:52.506Z,100210.61
2022-10-23T21:42:22.106Z,100209.47
2022-10-23T21:44:53.564Z,100207.48
2022-10-23T21:47:22.603Z,100206.13
2022-10-23T21:49:54.290Z,100201.35
2022-10-23T21:52:24.848Z,100201.78
2022-10-23T21:54:54.732Z,100198.64
2022-10-23T21:57:23.602Z,100195.91
2022-10-23T21:59:57.293Z,100199.67
2022-10-23T22:02:32.200Z,100202.63
2022-10-23T22:05:03.564Z,100205.60
2022-10-23T22:07:35.428Z,100200.73
2022-10-23T22:10:07.162Z,100196.59
2022-10-23T22:12:36.013Z,100202.87
2022-10-23T22:15:07.413Z,100195.45
2022-10-23T22:17:38.594Z,100186.59
2022-10-23T22:20:09.847Z,100178.73
2022-10-23T22:22:39.756Z,100175.45
2022-10-23T22:25:09.365Z,100174.91
2022-10-23T22:27:41.041Z,100177.61
2022-10-23T22:30:10.180Z,100177.54
2022-10-23T22:32:38.890Z,100183.90
2022-10-23T22:35:12.336Z,100185.55
2022-10-23T22:37:41.665Z,100184.73
2022-10-23T22:40:11.736Z,100183.79
2022-10-23T22:42:41.643Z,100182.35
2022-10-23T22:45:11.389Z,100177.30
2022-10-23T22:47:41.963Z,100176.96
2022-10-23T22:50:15.422Z,100177.36
2022-10-23T22:52:45.039Z,100178.53
2022-10-23T22:55:16.581Z,100181.81
2022-10-23T22:57:45.567Z,100184.84
2022-10-23T23:00:17.100Z,100189.27
2022-10-23T23:02:48.254Z,100187.30
2022-10-23T23:05:18.382Z,100194.86
2022-10-23T23:07:48.248Z,100201.66
2022-10-23T23:10:20.339Z,100206.61
2022-10-23T23:12:53.964Z,100198.50
2022-10-23T23:15:24.163Z,100192.51
2022-10-23T23:17:57.419Z,100188.19
2022-10-23T23:20:30.077Z,100183.30
2022-10-23T23:23:00.716Z,100173.92
2022-10-23T23:25:30.167Z,100172.43
2022-10-23T23:28:01.858Z,100171.16
2022-10-23T23:30:31.983Z,100170.59
2022-10-23T23:33:02.105Z,100173.69
2022-10-23T23:35:32.667Z,100173.54
2022-10-23T23:38:02.249Z,100171.68
2022-10-23T23:40:31.010Z,100173.95
2022-10-23T23:43:01.866Z,100175.33
2022-10-23T23:45:32.372Z,100180.25
2022-10-23T23:48:03.222Z,100176.06
2022-10-23T23:50:33.418Z,100173.13
2022-10-23T23:53:03.747Z,100174.04
2022-10-23T23:55:34.239Z,100172.86
2022-10-23T23:58:04.571Z,100168.42
